createdAt,value
2018-12-13T00:00:22.709Z,2.87
2018-12-13T00:01:22.696Z,2.93
2018-12-13T00:02:22.687Z,2.87
2018-12-13T00:03:22.679Z,2.86
2018-12-13T00:04:22.666Z,2.92
2018-12-13T00:05:22.672Z,2.86
2018-12-13T00:06:22.642Z,2.89
2018-12-13T00:07:22.629Z,2.86
2018-12-13T00:08:22.622Z,2.87
2018-12-13T00:09:22.607Z,2.90
2018-12-13T00:10:22.600Z,2.86
2018-12-13T00:11:22.585Z,2.87
2018-12-13T00:12:22.571Z,2.87
2018-12-13T00:13:22.555Z,2.90
2018-12-13T00:14:22.550Z,2.90
2018-12-13T00:15:22.540Z,2.87
2018-12-13T00:16:22.528Z,2.87
2018-12-13T00:17:22.514Z,2.86
2018-12-13T00:18:22.501Z,2.87
2018-12-13T00:19:22.488Z,2.89
2018-12-13T00:20:22.480Z,2.89
2018-12-13T00:21:22.463Z,2.87
2018-12-13T00:22:22.458Z,2.93
2018-12-13T00:23:22.444Z,2.92
2018-12-13T00:24:22.431Z,2.98
2018-12-13T00:25:22.413Z,2.90
2018-12-13T00:26:22.409Z,2.89
2018-12-13T00:27:22.456Z,2.92
2018-12-13T00:28:22.388Z,2.92
2018-12-13T00:29:22.378Z,2.90
2018-12-13T00:30:22.362Z,2.95
2018-12-13T00:31:22.353Z,2.87
2018-12-13T00:32:22.339Z,2.95
2018-12-13T00:33:22.328Z,2.93
2018-12-13T00:34:22.339Z,2.97
2018-12-13T00:35:22.308Z,2.97
2018-12-13T00:36:22.302Z,3.00
2018-12-13T00:37:22.283Z,2.89
2018-12-13T00:38:22.264Z,2.93
2018-12-13T00:39:22.258Z,3.01
2018-12-13T00:40:22.253Z,2.98
2018-12-13T00:41:22.235Z,2.90
2018-12-13T00:42:22.219Z,2.95
2018-12-13T00:43:22.211Z,3.00
2018-12-13T00:44:30.548Z,2.95
2018-12-13T00:46:32.384Z,2.98
2018-12-13T00:47:25.331Z,2.95
2018-12-13T00:54:17.810Z,2.95
2018-12-13T00:54:56.251Z,2.90
2018-12-13T00:56:55.397Z,2.95
2018-12-13T00:57:49.875Z,2.97
2018-12-13T00:59:45.284Z,2.89
2018-12-13T01:00:44.982Z,2.93
2018-12-13T01:02:39.744Z,3.01
2018-12-13T01:03:39.622Z,2.86
2018-12-13T01:05:33.619Z,2.97
2018-12-13T01:06:33.231Z,2.92
2018-12-13T01:08:27.018Z,2.98
2018-12-13T01:09:26.873Z,3.01
2018-12-13T01:11:20.635Z,2.97
2018-12-13T01:12:20.497Z,2.98
2018-12-13T01:14:14.203Z,2.95
2018-12-13T01:15:14.074Z,2.95
2018-12-13T01:17:07.969Z,2.93
2018-12-13T01:18:07.842Z,2.95
2018-12-13T01:20:01.773Z,2.95
2018-12-13T01:21:01.519Z,2.98
2018-12-13T01:22:55.660Z,2.98
2018-12-13T01:23:55.187Z,2.93
2018-12-13T01:25:50.710Z,3.00
2018-12-13T01:26:50.093Z,2.86
2018-12-13T01:28:43.746Z,2.85
2018-12-13T01:29:43.620Z,2.87
2018-12-13T01:31:37.392Z,2.83
2018-12-13T01:32:37.326Z,2.87
2018-12-13T01:34:31.220Z,2.87
2018-12-13T01:35:31.323Z,2.85
2018-12-13T01:37:24.800Z,2.77
2018-12-13T01:38:24.615Z,2.85
2018-12-13T01:40:18.521Z,2.79
2018-12-13T01:41:18.299Z,2.82
2018-12-13T01:43:12.105Z,2.79
2018-12-13T01:44:11.995Z,2.79
2018-12-13T01:46:06.083Z,2.67
2018-12-13T01:47:05.711Z,2.69
2018-12-13T01:48:59.510Z,2.72
2018-12-13T01:49:59.209Z,2.77
2018-12-13T01:51:54.566Z,2.64
2018-12-13T01:52:54.411Z,2.67
2018-12-13T01:54:49.227Z,2.61
2018-12-13T01:55:49.118Z,2.53
2018-12-13T01:57:42.972Z,2.60
2018-12-13T01:58:42.733Z,2.56
2018-12-13T02:00:36.534Z,2.57
2018-12-13T02:01:36.386Z,2.51
2018-12-13T02:03:30.167Z,2.56
2018-12-13T02:04:29.997Z,2.51
2018-12-13T02:05:30.014Z,2.47
2018-12-13T02:06:30.230Z,2.49
2018-12-13T02:07:29.961Z,2.49
2018-12-13T02:08:34.808Z,2.50
2018-12-13T02:09:29.943Z,2.53
2018-12-13T02:10:29.931Z,2.50
2018-12-13T02:11:29.916Z,2.49
2018-12-13T02:12:29.902Z,2.50
2018-12-13T02:13:29.894Z,2.39
2018-12-13T02:14:29.881Z,2.42
2018-12-13T02:15:29.879Z,2.44
2018-12-13T02:16:29.859Z,2.29
2018-12-13T02:17:29.847Z,2.39
2018-12-13T02:18:29.849Z,2.33
2018-12-13T02:19:29.815Z,2.28
2018-12-13T02:20:29.814Z,2.28
2018-12-13T02:21:29.797Z,2.29
2018-12-13T02:22:29.785Z,2.28
2018-12-13T02:23:29.771Z,2.28
2018-12-13T02:24:29.763Z,2.20
2018-12-13T02:25:29.758Z,2.29
2018-12-13T02:26:29.739Z,2.22
2018-12-13T02:27:29.722Z,2.24
2018-12-13T02:28:29.718Z,2.24
2018-12-13T02:29:29.705Z,2.15
2018-12-13T02:30:29.691Z,2.20
2018-12-13T02:31:29.677Z,2.18
2018-12-13T02:32:29.667Z,2.20
2018-12-13T02:33:29.663Z,2.04
2018-12-13T02:34:29.645Z,2.14
2018-12-13T02:35:29.629Z,2.08
2018-12-13T02:36:29.616Z,2.08
2018-12-13T02:37:29.604Z,2.08
2018-12-13T02:38:29.592Z,2.11
2018-12-13T02:39:29.584Z,2.11
2018-12-13T02:40:29.583Z,2.14
2018-12-13T02:41:29.561Z,2.13
2018-12-13T02:42:29.551Z,2.14
2018-12-13T02:43:29.534Z,2.10
2018-12-13T02:44:29.517Z,2.10
2018-12-13T02:45:29.512Z,2.06
2018-12-13T02:46:29.491Z,2.06
2018-12-13T02:47:29.487Z,2.13
2018-12-13T02:48:29.472Z,1.92
2018-12-13T02:49:29.464Z,2.14
2018-12-13T02:50:29.452Z,2.10
2018-12-13T02:51:29.437Z,1.97
2018-12-13T02:52:29.423Z,2.08
2018-12-13T02:53:29.413Z,2.02
2018-12-13T02:54:29.401Z,2.04
2018-12-13T02:55:29.389Z,2.00
2018-12-13T02:56:29.377Z,2.07
2018-12-13T02:57:29.360Z,1.97
2018-12-13T02:58:29.353Z,1.99
2018-12-13T02:59:29.335Z,2.04
2018-12-13T03:00:29.337Z,1.94
2018-12-13T03:01:29.320Z,1.97
2018-12-13T03:02:29.305Z,1.95
2018-12-13T03:03:29.287Z,1.95
2018-12-13T03:04:29.280Z,1.99
2018-12-13T03:05:29.268Z,1.99
2018-12-13T03:06:29.256Z,1.91
2018-12-13T03:07:29.252Z,1.92
2018-12-13T03:08:29.229Z,1.94
2018-12-13T03:09:29.219Z,1.91
2018-12-13T03:10:29.206Z,1.94
2018-12-13T03:11:29.198Z,1.94
2018-12-13T03:12:29.181Z,1.99
2018-12-13T03:13:29.166Z,1.92
2018-12-13T03:14:29.156Z,1.81
2018-12-13T03:15:29.141Z,1.89
2018-12-13T03:16:29.134Z,1.88
2018-12-13T03:17:29.119Z,1.87
2018-12-13T03:18:29.110Z,1.76
2018-12-13T03:19:29.095Z,1.88
2018-12-13T03:20:29.084Z,1.84
2018-12-13T03:21:29.072Z,1.88
2018-12-13T03:22:29.058Z,1.81
2018-12-13T03:23:29.044Z,1.84
2018-12-13T03:24:29.037Z,1.77
2018-12-13T03:25:29.029Z,1.84
2018-12-13T03:26:29.006Z,1.80
2018-12-13T03:27:29.000Z,1.76
2018-12-13T03:28:28.989Z,1.81
2018-12-13T03:29:28.971Z,1.81
2018-12-13T03:30:28.959Z,1.84
2018-12-13T03:31:28.947Z,1.78
2018-12-13T03:32:28.934Z,1.81
2018-12-13T03:33:28.925Z,1.81
2018-12-13T03:34:28.910Z,1.84
2018-12-13T03:35:28.900Z,1.84
2018-12-13T03:36:28.891Z,1.84
2018-12-13T03:37:28.898Z,1.81
2018-12-13T03:38:28.860Z,1.84
2018-12-13T03:39:28.850Z,1.97
2018-12-13T03:40:28.840Z,1.87
2018-12-13T03:41:28.827Z,1.94
2018-12-13T03:42:28.809Z,1.97
2018-12-13T03:43:28.800Z,1.80
2018-12-13T03:44:28.790Z,1.87
2018-12-13T03:45:28.771Z,1.85
2018-12-13T03:46:28.757Z,1.85
2018-12-13T03:47:28.753Z,1.85
2018-12-13T03:48:28.740Z,1.80
2018-12-13T03:49:28.723Z,1.77
2018-12-13T03:50:28.741Z,1.76
2018-12-13T03:51:28.702Z,1.76
2018-12-13T03:52:28.690Z,1.70
2018-12-13T03:53:28.675Z,1.67
2018-12-13T03:54:28.663Z,1.74
2018-12-13T03:55:28.656Z,1.74
2018-12-13T03:56:28.639Z,1.76
2018-12-13T03:57:28.627Z,1.73
2018-12-13T03:58:28.614Z,1.62
2018-12-13T03:59:28.604Z,1.66
2018-12-13T04:00:28.586Z,1.62
2018-12-13T04:01:28.581Z,1.73
2018-12-13T04:02:30.161Z,1.68
2018-12-13T04:03:28.548Z,1.71
2018-12-13T04:04:28.541Z,1.60
2018-12-13T04:05:28.530Z,1.59
2018-12-13T04:06:28.518Z,1.59
2018-12-13T04:07:28.501Z,1.59
2018-12-13T04:08:28.487Z,1.66
2018-12-13T04:09:28.477Z,1.63
2018-12-13T04:10:28.466Z,1.59
2018-12-13T04:11:28.449Z,1.63
2018-12-13T04:12:28.465Z,1.58
2018-12-13T04:13:28.428Z,1.56
2018-12-13T04:14:28.421Z,1.56
2018-12-13T04:15:28.404Z,1.58
2018-12-13T04:16:28.393Z,1.63
2018-12-13T04:17:28.374Z,1.59
2018-12-13T04:18:28.368Z,1.59
2018-12-13T04:19:28.350Z,1.56
2018-12-13T04:20:28.340Z,1.60
2018-12-13T04:21:28.333Z,1.55
2018-12-13T04:22:28.333Z,1.59
2018-12-13T04:23:28.307Z,1.60
2018-12-13T04:24:28.295Z,1.56
2018-12-13T04:25:28.277Z,1.48
2018-12-13T04:26:28.268Z,1.49
2018-12-13T04:27:28.252Z,1.48
2018-12-13T04:28:36.428Z,1.42
2018-12-13T04:30:35.846Z,1.45
2018-12-13T04:37:40.344Z,1.48
2018-12-13T04:38:21.993Z,1.38
2018-12-13T04:40:15.696Z,1.37
2018-12-13T04:41:15.594Z,1.34
2018-12-13T04:43:09.280Z,1.30
2018-12-13T04:44:09.232Z,1.24
2018-12-13T04:46:02.936Z,1.35
2018-12-13T04:47:02.801Z,1.24
2018-12-13T04:48:56.325Z,1.22
2018-12-13T04:49:56.149Z,1.28
2018-12-13T04:51:49.897Z,1.23
2018-12-13T04:52:49.797Z,1.31
2018-12-13T04:54:43.357Z,1.31
2018-12-13T04:55:43.269Z,1.30
2018-12-13T04:57:36.974Z,1.22
2018-12-13T04:58:36.872Z,1.24
2018-12-13T05:00:31.676Z,1.20
2018-12-13T05:01:31.628Z,1.19
2018-12-13T05:03:26.472Z,1.20
2018-12-13T05:04:26.396Z,1.16
2018-12-13T05:06:21.558Z,1.16
2018-12-13T05:07:21.434Z,1.17
2018-12-13T05:09:15.340Z,1.14
2018-12-13T05:10:15.250Z,1.16
2018-12-13T05:12:09.680Z,1.13
2018-12-13T05:13:09.607Z,1.14
2018-12-13T05:15:03.294Z,1.14
2018-12-13T05:16:03.249Z,1.10
2018-12-13T05:17:56.926Z,1.12
2018-12-13T05:18:56.774Z,1.16
2018-12-13T05:20:50.529Z,1.02
2018-12-13T05:21:50.432Z,1.04
2018-12-13T05:23:44.182Z,1.04
2018-12-13T05:24:44.076Z,1.13
2018-12-13T05:26:38.045Z,1.10
2018-12-13T05:27:37.658Z,0.99
2018-12-13T05:29:31.443Z,1.01
2018-12-13T05:30:31.395Z,0.92
2018-12-13T05:32:25.025Z,1.02
2018-12-13T05:33:24.925Z,0.96
2018-12-13T05:34:24.935Z,0.96
2018-12-13T05:35:24.914Z,0.95
2018-12-13T05:36:25.015Z,0.95
2018-12-13T05:37:24.899Z,0.92
2018-12-13T05:38:24.859Z,0.95
2018-12-13T05:39:24.855Z,0.96
2018-12-13T05:40:24.844Z,0.87
2018-12-13T05:41:24.824Z,0.96
2018-12-13T05:42:24.810Z,0.88
2018-12-13T05:43:25.892Z,0.84
2018-12-13T05:44:24.793Z,0.84
2018-12-13T05:45:24.779Z,0.91
2018-12-13T05:46:24.754Z,0.87
2018-12-13T05:47:24.754Z,0.91
2018-12-13T05:48:24.739Z,0.91
2018-12-13T05:49:24.723Z,0.84
2018-12-13T05:50:24.716Z,0.80
2018-12-13T05:51:24.704Z,0.87
2018-12-13T05:52:24.677Z,0.81
2018-12-13T05:53:25.295Z,0.84
2018-12-13T05:54:24.659Z,0.81
2018-12-13T05:55:24.647Z,0.88
2018-12-13T05:56:24.631Z,0.88
2018-12-13T05:57:24.617Z,0.73
2018-12-13T05:58:24.615Z,0.73
2018-12-13T05:59:24.597Z,0.78
2018-12-13T06:00:24.588Z,0.76
2018-12-13T06:01:24.566Z,0.70
2018-12-13T06:02:24.557Z,0.76
2018-12-13T06:03:24.549Z,0.68
2018-12-13T06:04:24.527Z,0.69
2018-12-13T06:05:24.514Z,0.80
2018-12-13T06:06:24.507Z,0.77
2018-12-13T06:07:24.489Z,0.77
2018-12-13T06:08:24.477Z,0.74
2018-12-13T06:09:24.467Z,0.73
2018-12-13T06:10:24.453Z,0.77
2018-12-13T06:11:24.442Z,0.77
2018-12-13T06:12:24.426Z,0.68
2018-12-13T06:13:24.413Z,0.76
2018-12-13T06:14:24.403Z,0.77
2018-12-13T06:15:24.386Z,0.74
2018-12-13T06:16:24.375Z,0.74
2018-12-13T06:17:24.359Z,0.73
2018-12-13T06:18:24.346Z,0.78
2018-12-13T06:19:26.881Z,0.73
2018-12-13T06:20:24.320Z,0.70
2018-12-13T06:21:24.311Z,0.66
2018-12-13T06:22:24.299Z,0.63
2018-12-13T06:23:24.279Z,0.70
2018-12-13T06:24:24.267Z,0.63
2018-12-13T06:25:24.256Z,0.74
2018-12-13T06:26:24.252Z,0.69
2018-12-13T06:27:24.230Z,0.65
2018-12-13T06:28:24.223Z,0.73
2018-12-13T06:29:24.205Z,0.70
2018-12-13T06:30:24.195Z,0.65
2018-12-13T06:31:24.180Z,0.76
2018-12-13T06:32:24.162Z,0.73
2018-12-13T06:33:24.905Z,0.68
2018-12-13T06:34:24.143Z,0.68
2018-12-13T06:35:24.130Z,0.63
2018-12-13T06:36:24.117Z,0.66
2018-12-13T06:37:24.100Z,0.69
2018-12-13T06:38:24.093Z,0.76
2018-12-13T06:39:24.075Z,0.60
2018-12-13T06:40:24.070Z,0.62
2018-12-13T06:41:24.052Z,0.65
2018-12-13T06:42:24.043Z,0.65
2018-12-13T06:43:24.021Z,0.63
2018-12-13T06:44:24.010Z,0.69
2018-12-13T06:45:23.998Z,0.69
2018-12-13T06:46:23.988Z,0.68
2018-12-13T06:47:23.975Z,0.69
2018-12-13T06:48:23.961Z,0.70
2018-12-13T06:49:23.945Z,0.68
2018-12-13T06:50:23.951Z,0.70
2018-12-13T06:51:23.927Z,0.69
2018-12-13T06:52:23.903Z,0.68
2018-12-13T06:53:23.891Z,0.62
2018-12-13T06:54:23.885Z,0.69
2018-12-13T06:55:23.868Z,0.63
2018-12-13T06:56:23.860Z,0.66
2018-12-13T06:57:23.836Z,0.65
2018-12-13T06:58:23.835Z,0.70
2018-12-13T06:59:23.818Z,0.63
2018-12-13T07:00:23.807Z,0.68
2018-12-13T07:01:23.796Z,0.62
2018-12-13T07:02:23.776Z,0.58
2018-12-13T07:03:23.765Z,0.66
2018-12-13T07:04:23.748Z,0.62
2018-12-13T07:05:23.746Z,0.59
2018-12-13T07:06:23.723Z,0.70
2018-12-13T07:07:23.712Z,0.62
2018-12-13T07:08:23.702Z,0.62
2018-12-13T07:09:23.683Z,0.60
2018-12-13T07:10:23.678Z,0.68
2018-12-13T07:11:23.662Z,0.62
2018-12-13T07:12:23.644Z,0.59
2018-12-13T07:13:23.639Z,0.58
2018-12-13T07:14:23.621Z,0.62
2018-12-13T07:15:23.615Z,0.60
2018-12-13T07:16:23.592Z,0.55
2018-12-13T07:17:23.585Z,0.58
2018-12-13T07:18:23.568Z,0.50
2018-12-13T07:19:23.555Z,0.63
2018-12-13T07:20:23.546Z,0.58
2018-12-13T07:21:23.527Z,0.55
2018-12-13T07:22:23.520Z,0.62
2018-12-13T07:23:23.504Z,0.55
2018-12-13T07:24:23.496Z,0.55
2018-12-13T07:25:23.480Z,0.56
2018-12-13T07:26:23.466Z,0.60
2018-12-13T07:27:23.455Z,0.56
2018-12-13T07:28:23.449Z,0.58
2018-12-13T07:29:23.429Z,0.58
2018-12-13T07:30:23.429Z,0.56
2018-12-13T07:31:23.397Z,0.63
2018-12-13T07:32:23.389Z,0.58
2018-12-13T07:33:23.369Z,0.55
2018-12-13T07:34:23.365Z,0.52
2018-12-13T07:35:23.360Z,0.58
2018-12-13T07:36:23.336Z,0.55
2018-12-13T07:37:23.318Z,0.59
2018-12-13T07:38:23.321Z,0.59
2018-12-13T07:39:23.292Z,0.56
2018-12-13T07:40:23.286Z,0.58
2018-12-13T07:41:23.266Z,0.55
2018-12-13T07:42:23.259Z,0.56
2018-12-13T07:43:23.239Z,0.62
2018-12-13T07:44:23.233Z,0.66
2018-12-13T07:45:23.221Z,0.58
2018-12-13T07:46:23.202Z,0.69
2018-12-13T07:47:23.190Z,0.65
2018-12-13T07:48:23.419Z,0.68
2018-12-13T07:49:23.162Z,0.69
2018-12-13T07:50:23.162Z,0.65
2018-12-13T07:51:23.147Z,0.73
2018-12-13T07:52:23.127Z,0.70
2018-12-13T07:53:23.114Z,0.66
2018-12-13T07:54:23.117Z,0.69
2018-12-13T07:55:23.089Z,0.74
2018-12-13T07:56:23.077Z,0.74
2018-12-13T07:57:23.066Z,0.74
2018-12-13T07:58:23.056Z,0.70
2018-12-13T07:59:23.038Z,0.74
2018-12-13T08:00:23.023Z,0.78
2018-12-13T08:01:23.005Z,0.81
2018-12-13T08:02:23.024Z,0.76
2018-12-13T08:03:22.985Z,0.78
2018-12-13T08:04:22.975Z,0.86
2018-12-13T08:05:23.817Z,0.80
2018-12-13T08:06:22.951Z,0.83
2018-12-13T08:07:22.938Z,0.87
2018-12-13T08:08:22.922Z,0.86
2018-12-13T08:09:22.911Z,0.98
2018-12-13T08:10:22.900Z,0.98
2018-12-13T08:11:30.888Z,0.99
2018-12-13T08:13:17.726Z,0.95
2018-12-13T08:14:17.667Z,0.95
2018-12-13T08:16:11.911Z,0.98
2018-12-13T08:17:11.854Z,1.04
2018-12-13T08:19:05.487Z,0.98
2018-12-13T08:20:05.428Z,1.01
2018-12-13T08:21:59.112Z,1.05
2018-12-13T08:22:59.066Z,1.13
2018-12-13T08:24:52.743Z,1.08
2018-12-13T08:25:52.688Z,1.10
2018-12-13T08:27:46.471Z,1.26
2018-12-13T08:28:46.428Z,1.26
2018-12-13T08:30:40.105Z,1.42
2018-12-13T08:31:40.004Z,1.45
2018-12-13T08:33:33.508Z,1.58
2018-12-13T08:34:33.481Z,1.63
2018-12-13T08:36:27.075Z,1.68
2018-12-13T08:37:27.029Z,1.71
2018-12-13T08:38:27.456Z,1.76
2018-12-13T08:39:27.013Z,1.81
2018-12-13T08:40:27.000Z,1.94
2018-12-13T08:41:26.995Z,1.91
2018-12-13T08:42:26.971Z,1.91
2018-12-13T08:43:26.996Z,1.91
2018-12-13T08:44:27.003Z,1.94
2018-12-13T08:45:26.991Z,1.89
2018-12-13T08:46:27.083Z,1.99
2018-12-13T08:47:26.919Z,1.91
2018-12-13T08:48:28.903Z,1.88
2018-12-13T08:49:26.905Z,1.89
2018-12-13T08:50:26.896Z,1.92
2018-12-13T08:51:26.879Z,1.99
2018-12-13T08:52:27.396Z,2.14
2018-12-13T08:53:26.855Z,2.06
2018-12-13T08:54:26.844Z,2.08
2018-12-13T08:55:26.855Z,2.18
2018-12-13T08:56:26.829Z,2.17
2018-12-13T08:57:26.807Z,2.18
2018-12-13T08:58:26.809Z,2.32
2018-12-13T08:59:26.802Z,2.38
2018-12-13T09:00:26.787Z,2.43
2018-12-13T09:01:26.777Z,2.44
2018-12-13T09:02:26.771Z,2.51
2018-12-13T09:03:26.765Z,2.54
2018-12-13T09:04:27.419Z,2.61
2018-12-13T09:05:26.731Z,2.65
2018-12-13T09:06:26.720Z,2.68
2018-12-13T09:07:26.717Z,2.68
2018-12-13T09:08:26.706Z,2.75
2018-12-13T09:09:26.700Z,2.79
2018-12-13T09:10:26.690Z,2.77
2018-12-13T09:11:26.680Z,2.87
2018-12-13T09:12:26.658Z,2.93
2018-12-13T09:13:26.653Z,2.86
2018-12-13T09:14:26.651Z,2.85
2018-12-13T09:15:26.638Z,2.87
2018-12-13T09:16:31.473Z,2.83
2018-12-13T09:17:26.616Z,3.01
2018-12-13T09:18:26.614Z,2.89
2018-12-13T09:19:26.602Z,2.87
2018-12-13T09:20:26.588Z,2.79
2018-12-13T09:21:27.415Z,2.83
2018-12-13T09:22:26.568Z,2.89
2018-12-13T09:23:26.567Z,2.87
2018-12-13T09:24:26.570Z,2.86
2018-12-13T09:25:26.556Z,2.72
2018-12-13T09:26:26.539Z,2.82
2018-12-13T09:27:27.413Z,2.85
2018-12-13T09:28:26.530Z,2.85
2018-12-13T09:29:26.514Z,2.80
2018-12-13T09:30:26.498Z,2.74
2018-12-13T09:31:26.488Z,2.75
2018-12-13T09:32:26.472Z,2.74
2018-12-13T09:33:26.472Z,2.72
2018-12-13T09:34:26.461Z,2.71
2018-12-13T09:35:26.451Z,2.83
2018-12-13T09:36:26.443Z,2.77
2018-12-13T09:37:26.430Z,2.89
2018-12-13T09:38:27.359Z,2.85
2018-12-13T09:39:26.409Z,2.87
2018-12-13T09:40:26.403Z,2.97
2018-12-13T09:41:26.391Z,2.98
2018-12-13T09:42:26.377Z,2.93
2018-12-13T09:43:26.370Z,3.11
2018-12-13T09:44:26.358Z,3.18
2018-12-13T09:45:26.348Z,3.22
2018-12-13T09:46:26.342Z,3.26
2018-12-13T09:47:26.327Z,3.29
2018-12-13T09:48:26.317Z,3.44
2018-12-13T09:49:26.315Z,3.42
2018-12-13T09:50:26.303Z,3.41
2018-12-13T09:51:26.297Z,3.47
2018-12-13T09:52:26.282Z,3.48
2018-12-13T09:53:26.280Z,3.55
2018-12-13T09:54:26.268Z,3.55
2018-12-13T09:55:26.260Z,3.53
2018-12-13T09:56:26.249Z,3.63
2018-12-13T09:57:26.241Z,3.74
2018-12-13T09:58:26.234Z,3.81
2018-12-13T09:59:26.238Z,3.74
2018-12-13T10:00:26.212Z,3.83
2018-12-13T10:01:26.207Z,3.83
2018-12-13T10:02:26.200Z,3.70
2018-12-13T10:03:26.181Z,3.78
2018-12-13T10:04:26.180Z,3.73
2018-12-13T10:05:26.172Z,3.86
2018-12-13T10:06:26.165Z,3.86
2018-12-13T10:07:26.155Z,3.87
2018-12-13T10:08:26.148Z,3.91
2018-12-13T10:09:26.138Z,3.99
2018-12-13T10:10:26.126Z,3.94
2018-12-13T10:11:26.120Z,3.91
2018-12-13T10:12:26.113Z,3.92
2018-12-13T10:13:26.105Z,3.81
2018-12-13T10:14:26.103Z,3.77
2018-12-13T10:15:31.792Z,3.76
2018-12-13T10:16:26.080Z,3.76
2018-12-13T10:17:26.071Z,3.65
2018-12-13T10:18:26.067Z,3.63
2018-12-13T10:19:26.056Z,3.74
2018-12-13T10:20:26.055Z,3.78
2018-12-13T10:21:26.044Z,3.86
2018-12-13T10:22:26.033Z,3.86
2018-12-13T10:23:26.026Z,3.88
2018-12-13T10:24:26.017Z,3.86
2018-12-13T10:25:26.010Z,3.88
2018-12-13T10:26:25.998Z,3.94
2018-12-13T10:27:25.989Z,3.88
2018-12-13T10:28:26.014Z,3.88
2018-12-13T10:29:25.979Z,3.92
2018-12-13T10:30:25.972Z,3.94
2018-12-13T10:31:25.957Z,3.92
2018-12-13T10:32:25.945Z,4.02
2018-12-13T10:33:25.941Z,3.96
2018-12-13T10:34:25.933Z,4.13
2018-12-13T10:35:25.926Z,3.98
2018-12-13T10:36:25.919Z,4.05
2018-12-13T10:37:25.906Z,4.02
2018-12-13T10:38:25.900Z,4.06
2018-12-13T10:39:25.894Z,4.04
2018-12-13T10:40:25.904Z,4.02
2018-12-13T10:41:25.874Z,4.06
2018-12-13T10:42:25.866Z,4.17
2018-12-13T10:43:25.853Z,4.26
2018-12-13T10:44:25.849Z,4.31
2018-12-13T10:45:25.843Z,4.23
2018-12-13T10:46:25.826Z,4.26
2018-12-13T10:47:25.822Z,4.20
2018-12-13T10:48:25.815Z,4.19
2018-12-13T10:49:25.806Z,4.23
2018-12-13T10:50:25.796Z,4.14
2018-12-13T10:51:25.788Z,4.22
2018-12-13T10:52:25.785Z,4.16
2018-12-13T10:53:25.769Z,4.08
2018-12-13T10:54:25.762Z,4.04
2018-12-13T10:55:25.752Z,4.19
2018-12-13T10:56:25.743Z,4.12
2018-12-13T10:57:25.740Z,4.12
2018-12-13T10:58:25.723Z,4.17
2018-12-13T10:59:25.717Z,4.06
2018-12-13T11:00:25.706Z,4.04
2018-12-13T11:01:25.695Z,4.01
2018-12-13T11:02:25.686Z,4.02
2018-12-13T11:03:25.682Z,4.17
2018-12-13T11:04:25.667Z,4.12
2018-12-13T11:05:25.660Z,4.13
2018-12-13T11:06:25.643Z,4.08
2018-12-13T11:07:25.642Z,3.95
2018-12-13T11:08:25.634Z,3.91
2018-12-13T11:09:25.623Z,3.81
2018-12-13T11:10:25.617Z,3.94
2018-12-13T11:11:25.599Z,3.76
2018-12-13T11:12:25.586Z,3.80
2018-12-13T11:13:25.578Z,3.77
2018-12-13T11:14:25.583Z,3.77
2018-12-13T11:15:25.567Z,3.73
2018-12-13T11:16:25.553Z,3.81
2018-12-13T11:17:25.542Z,3.73
2018-12-13T11:18:25.525Z,3.78
2018-12-13T11:19:25.523Z,3.77
2018-12-13T11:20:25.506Z,3.76
2018-12-13T11:21:25.503Z,3.76
2018-12-13T11:22:25.495Z,3.87
2018-12-13T11:23:25.485Z,3.86
2018-12-13T11:24:25.475Z,3.87
2018-12-13T11:25:25.463Z,3.94
2018-12-13T11:26:25.444Z,3.87
2018-12-13T11:27:25.445Z,3.91
2018-12-13T11:28:25.431Z,4.01
2018-12-13T11:29:25.437Z,4.10
2018-12-13T11:30:25.412Z,4.12
2018-12-13T11:31:25.403Z,4.26
2018-12-13T11:32:25.393Z,4.28
2018-12-13T11:33:25.383Z,4.31
2018-12-13T11:34:25.369Z,4.38
2018-12-13T11:35:25.365Z,4.31
2018-12-13T11:36:25.358Z,4.30
2018-12-13T11:37:25.343Z,4.34
2018-12-13T11:38:25.333Z,4.28
2018-12-13T11:39:25.327Z,4.28
2018-12-13T11:40:25.309Z,4.19
2018-12-13T11:41:25.298Z,4.26
2018-12-13T11:42:25.292Z,4.42
2018-12-13T11:43:25.293Z,4.40
2018-12-13T11:44:25.283Z,4.35
2018-12-13T11:45:25.268Z,4.37
2018-12-13T11:46:25.259Z,4.44
2018-12-13T11:47:25.251Z,4.49
2018-12-13T11:48:25.241Z,4.48
2018-12-13T11:49:25.228Z,4.58
2018-12-13T11:50:25.221Z,4.75
2018-12-13T11:51:25.213Z,4.84
2018-12-13T11:52:25.202Z,4.90
2018-12-13T11:53:25.195Z,4.89
2018-12-13T11:54:25.183Z,4.94
2018-12-13T11:55:25.176Z,4.96
2018-12-13T11:56:25.163Z,4.90
2018-12-13T11:57:25.159Z,5.04
2018-12-13T11:58:25.153Z,5.11
2018-12-13T11:59:25.142Z,5.11
2018-12-13T12:00:25.134Z,5.15
2018-12-13T12:01:25.123Z,5.20
2018-12-13T12:02:25.119Z,5.17
2018-12-13T12:03:25.111Z,4.93
2018-12-13T12:04:25.104Z,5.00
2018-12-13T12:05:25.092Z,4.92
2018-12-13T12:06:25.085Z,4.82
2018-12-13T12:07:25.081Z,4.93
2018-12-13T12:08:25.068Z,4.94
2018-12-13T12:09:25.060Z,4.93
2018-12-13T12:10:25.054Z,4.94
2018-12-13T12:11:25.046Z,4.89
2018-12-13T12:12:25.038Z,4.87
2018-12-13T12:13:25.030Z,4.78
2018-12-13T12:14:25.019Z,4.90
2018-12-13T12:15:25.015Z,4.89
2018-12-13T12:16:25.003Z,4.93
2018-12-13T12:17:25.001Z,5.00
2018-12-13T12:18:24.989Z,5.00
2018-12-13T12:19:24.982Z,5.15
2018-12-13T12:20:24.981Z,5.04
2018-12-13T12:21:24.966Z,5.12
2018-12-13T12:22:24.957Z,5.18
2018-12-13T12:23:24.949Z,5.08
2018-12-13T12:24:24.952Z,5.15
2018-12-13T12:25:24.939Z,5.05
2018-12-13T12:26:24.931Z,4.93
2018-12-13T12:27:24.916Z,4.96
2018-12-13T12:28:24.906Z,4.90
2018-12-13T12:29:24.902Z,4.82
2018-12-13T12:30:24.889Z,4.82
2018-12-13T12:31:24.882Z,4.84
2018-12-13T12:32:24.878Z,4.78
2018-12-13T12:33:24.869Z,4.96
2018-12-13T12:34:24.857Z,4.96
2018-12-13T12:35:24.852Z,5.02
2018-12-13T12:36:24.848Z,4.96
2018-12-13T12:37:24.835Z,4.92
2018-12-13T12:38:24.831Z,4.75
2018-12-13T12:39:24.822Z,4.80
2018-12-13T12:40:24.815Z,4.75
2018-12-13T12:41:24.835Z,4.84
2018-12-13T12:42:24.789Z,4.97
2018-12-13T12:43:24.785Z,5.00
2018-12-13T12:44:24.775Z,5.02
2018-12-13T12:45:24.770Z,4.93
2018-12-13T12:46:24.761Z,4.96
2018-12-13T12:47:24.750Z,4.99
2018-12-13T12:48:24.747Z,4.93
2018-12-13T12:49:25.359Z,4.86
2018-12-13T12:50:24.727Z,4.86
2018-12-13T12:51:24.720Z,4.78
2018-12-13T12:52:24.712Z,4.90
2018-12-13T12:53:24.699Z,4.93
2018-12-13T12:54:24.687Z,4.87
2018-12-13T12:55:24.675Z,4.82
2018-12-13T12:56:24.667Z,4.80
2018-12-13T12:57:24.663Z,4.80
2018-12-13T12:58:24.654Z,4.80
2018-12-13T12:59:24.653Z,4.80
2018-12-13T13:00:24.627Z,4.77
2018-12-13T13:01:24.627Z,4.66
2018-12-13T13:02:24.610Z,4.60
2018-12-13T13:03:24.602Z,4.53
2018-12-13T13:04:24.601Z,4.53
2018-12-13T13:05:24.587Z,4.53
2018-12-13T13:06:24.579Z,4.53
2018-12-13T13:07:24.572Z,4.56
2018-12-13T13:08:24.564Z,4.49
2018-12-13T13:09:25.201Z,4.58
2018-12-13T13:10:24.539Z,4.63
2018-12-13T13:11:24.528Z,4.53
2018-12-13T13:12:24.528Z,4.55
2018-12-13T13:13:24.509Z,4.52
2018-12-13T13:14:24.497Z,4.44
2018-12-13T13:15:24.488Z,4.42
2018-12-13T13:16:24.480Z,4.45
2018-12-13T13:17:24.474Z,4.49
2018-12-13T13:18:24.457Z,4.38
2018-12-13T13:19:24.448Z,4.35
2018-12-13T13:20:24.437Z,4.22
2018-12-13T13:21:24.422Z,4.24
2018-12-13T13:22:24.434Z,4.30
2018-12-13T13:23:24.410Z,4.37
2018-12-13T13:24:24.396Z,4.22
2018-12-13T13:25:24.395Z,4.30
2018-12-13T13:26:24.480Z,4.17
2018-12-13T13:27:24.363Z,4.22
2018-12-13T13:28:24.362Z,4.28
2018-12-13T13:29:24.348Z,4.22
2018-12-13T13:30:24.333Z,4.31
2018-12-13T13:31:24.328Z,4.26
2018-12-13T13:32:24.307Z,4.31
2018-12-13T13:33:24.298Z,4.31
2018-12-13T13:34:24.294Z,4.38
2018-12-13T13:35:24.280Z,4.31
2018-12-13T13:36:24.274Z,4.24
2018-12-13T13:37:24.263Z,4.22
2018-12-13T13:38:24.254Z,4.28
2018-12-13T13:39:24.234Z,4.22
2018-12-13T13:40:24.231Z,4.20
2018-12-13T13:41:24.219Z,4.24
2018-12-13T13:42:24.208Z,4.20
2018-12-13T13:43:24.204Z,4.19
2018-12-13T13:44:24.187Z,4.10
2018-12-13T13:45:24.177Z,4.12
2018-12-13T13:46:24.167Z,4.13
2018-12-13T13:47:24.153Z,4.08
2018-12-13T13:48:24.145Z,4.05
2018-12-13T13:49:24.128Z,4.04
2018-12-13T13:50:24.120Z,4.08
2018-12-13T13:51:24.114Z,4.12
2018-12-13T13:52:24.101Z,4.06
2018-12-13T13:53:24.084Z,4.06
2018-12-13T13:54:24.073Z,4.02
2018-12-13T13:55:24.079Z,4.02
2018-12-13T13:56:24.058Z,4.06
2018-12-13T13:57:24.043Z,3.98
2018-12-13T13:58:24.033Z,4.01
2018-12-13T13:59:24.026Z,4.02
2018-12-13T14:00:24.016Z,4.02
2018-12-13T14:01:24.009Z,3.99
2018-12-13T14:02:24.000Z,3.98
2018-12-13T14:03:23.977Z,3.87
2018-12-13T14:04:23.973Z,4.02
2018-12-13T14:05:23.962Z,3.91
2018-12-13T14:06:23.943Z,4.01
2018-12-13T14:07:23.936Z,3.91
2018-12-13T14:08:23.931Z,3.91
2018-12-13T14:09:23.910Z,3.94
2018-12-13T14:10:23.913Z,3.88
2018-12-13T14:11:23.896Z,3.92
2018-12-13T14:12:23.884Z,3.87
2018-12-13T14:13:23.869Z,3.88
2018-12-13T14:14:23.865Z,3.94
2018-12-13T14:15:23.848Z,3.84
2018-12-13T14:16:23.842Z,3.76
2018-12-13T14:17:23.827Z,3.91
2018-12-13T14:18:23.817Z,3.76